Time;durP1;ratioP1;P1;durP2;ratioP2;P2;SDS_P1;SDS_P2;PMS_P1;PMS_P2;Temp;Humidity;BMP_temperature;BMP_pressure;BME280_temperature;BME280_humidity;BME280_pressure;Samples;Min_cycle;Max_cycle;Signal;HPM_P1;HPM_P2
2021/03/14 00:01:58;;;;;;;;;;;;;;;17.63;65.00;100843.50;4985565;28;1519;-61
2021/03/14 00:04:24;;;;;;;;;;;;;;;17.60;65.62;100839.22;4991189;28;1699;-61
2021/03/14 00:06:49;;;;;;;;;;;;;;;17.58;64.69;100829.63;4989632;28;1720;-61
2021/03/14 00:09:14;;;;;;;;;;;;;;;17.57;65.41;100836.81;4980042;28;1504;-61
2021/03/14 00:11:40;;;;;;;;;;;;;;;17.54;64.92;100831.69;4991813;28;1894;-61
2021/03/14 00:14:05;;;;;;;;;;;;;;;17.54;64.80;100836.19;4987492;28;1575;-61
2021/03/14 00:16:30;;;;;;;;;;;;;;;17.49;65.53;100834.75;4990094;28;1702;-61
2021/03/14 00:18:56;;;;;;;;;;;;;;;17.47;64.37;100826.00;4989676;28;1560;-61
2021/03/14 00:21:22;;;;;;;;;;;;;;;17.47;64.23;100830.50;4989631;28;1484;-61
2021/03/14 00:23:47;;;;;;;;;;;;;;;17.44;65.10;100818.22;4979928;28;1663;-61
2021/03/14 00:26:14;;;;;;;;;;;;;;;17.43;64.58;100805.84;4978083;28;1817;-61
2021/03/14 00:28:39;;;;;;;;;;;;;;;17.40;65.11;100811.41;4973120;28;1430;-61
2021/03/14 00:31:04;;;;;;;;;;;;;;;17.38;65.43;100799.16;4990670;28;1977;-61
2021/03/14 00:33:30;;;;;;;;;;;;;;;17.36;64.51;100793.09;4990244;28;1528;-61
2021/03/14 00:35:56;;;;;;;;;;;;;;;17.34;64.32;100787.88;4992008;28;1538;-61
2021/03/14 00:38:21;;;;;;;;;;;;;;;17.32;64.02;100786.31;4987428;28;1848;-61
2021/03/14 00:40:47;;;;;;;;;;;;;;;17.33;65.16;100794.19;4975047;28;1697;-61
2021/03/14 00:43:12;;;;;;;;;;;;;;;17.28;64.81;100783.84;4987684;28;1404;-61
2021/03/14 00:45:38;;;;;;;;;;;;;;;17.30;64.34;100787.25;4988734;28;1874;-61
2021/03/14 00:48:05;;;;;;;;;;;;;;;17.27;64.78;100784.84;4977984;28;1703;-61
2021/03/14 00:50:38;;;;;;;;;;;;;;;17.26;64.44;100777.78;4991587;28;1886;-61
2021/03/14 00:53:03;;;;;;;;;;;;;;;17.26;65.41;100768.94;4992391;28;1496;-61
2021/03/14 00:55:28;;;;;;;;;;;;;;;17.24;64.15;100754.84;4991242;28;1614;-61
2021/03/14 00:57:54;;;;;;;;;;;;;;;17.23;64.15;100759.34;4984582;28;1589;-61
2021/03/14 01:00:19;;;;;;;;;;;;;;;17.26;65.16;100756.41;4993235;28;1865;-61
2021/03/14 01:02:45;;;;;;;;;;;;;;;17.25;64.42;100745.88;4992228;28;1522;-61
2021/03/14 01:05:10;;;;;;;;;;;;;;;17.24;64.24;100744.16;4994382;28;1736;-61
2021/03/14 01:07:36;;;;;;;;;;;;;;;17.22;64.52;100746.94;4987179;28;1726;-61
2021/03/14 01:10:01;;;;;;;;;;;;;;;17.21;64.47;100744.38;4984617;28;1783;-61
2021/03/14 01:12:26;;;;;;;;;;;;;;;17.19;64.74;100738.31;4991199;28;1969;-61
2021/03/14 01:14:52;;;;;;;;;;;;;;;17.19;64.34;100741.00;4996250;28;1484;-61
2021/03/14 01:17:17;;;;;;;;;;;;;;;17.17;64.80;100741.13;4995092;28;1352;-61
2021/03/14 01:19:42;;;;;;;;;;;;;;;17.15;64.41;100739.53;4985203;28;1542;-61
2021/03/14 01:22:08;;;;;;;;;;;;;;;17.15;64.98;100740.41;4992759;28;1547;-61
2021/03/14 01:24:33;;;;;;;;;;;;;;;17.15;64.71;100739.53;4985636;28;1726;-61
2021/03/14 01:26:59;;;;;;;;;;;;;;;17.10;64.12;100726.56;4996327;28;1714;-61
2021/03/14 01:29:24;;;;;;;;;;;;;;;17.12;65.74;100724.63;4985028;28;1563;-61
2021/03/14 01:31:49;;;;;;;;;;;;;;;17.10;64.50;100719.38;4996635;28;1918;-61
2021/03/14 01:34:15;;;;;;;;;;;;;;;17.11;64.39;100725.59;4992456;28;1500;-61
2021/03/14 01:36:40;;;;;;;;;;;;;;;17.11;65.18;100725.59;4972911;28;1436;-61
2021/03/14 01:39:05;;;;;;;;;;;;;;;17.10;64.30;100727.41;4992762;28;1512;-61
2021/03/14 01:41:31;;;;;;;;;;;;;;;17.12;65.69;100735.31;4994266;28;1415;-61
2021/03/14 01:43:57;;;;;;;;;;;;;;;17.06;64.35;100723.28;4991257;28;1520;-61
2021/03/14 01:46:23;;;;;;;;;;;;;;;17.05;65.17;100716.25;4992454;28;1693;-61
2021/03/14 01:48:48;;;;;;;;;;;;;;;17.06;64.51;100722.44;4993213;28;1556;-61
2021/03/14 01:51:14;;;;;;;;;;;;;;;17.02;64.61;100704.97;4995274;28;1953;-61
2021/03/14 01:53:39;;;;;;;;;;;;;;;17.02;65.69;100708.47;4998334;28;1443;-61
2021/03/14 01:56:05;;;;;;;;;;;;;;;17.02;65.51;100721.84;4994305;28;1567;-61
2021/03/14 01:58:33;;;;;;;;;;;;;;;17.00;65.30;100709.59;4995455;28;1710;-61
2021/03/14 02:00:58;;;;;;;;;;;;;;;16.98;64.49;100707.03;4988812;28;1512;-61
2021/03/14 02:03:24;;;;;;;;;;;;;;;16.98;64.76;100704.34;4994885;28;1591;-61
2021/03/14 02:05:50;;;;;;;;;;;;;;;16.98;65.37;100706.19;4998502;28;1743;-61
2021/03/14 02:08:15;;;;;;;;;;;;;;;16.94;64.99;100692.22;4990069;28;1449;-61
2021/03/14 02:10:41;;;;;;;;;;;;;;;16.94;65.63;100694.91;4995234;28;1914;-61
2021/03/14 02:13:18;;;;;;;;;;;;;;;16.89;65.37;100687.25;4996103;28;1578;-61
2021/03/14 02:15:46;;;;;;;;;;;;;;;16.94;65.07;100686.88;4985949;28;1589;-61
2021/03/14 02:18:12;;;;;;;;;;;;;;;16.95;65.03;100701.94;4993065;28;1545;-61
2021/03/14 02:20:37;;;;;;;;;;;;;;;16.93;65.81;100690.53;4983872;28;1621;-61
2021/03/14 02:23:03;;;;;;;;;;;;;;;16.92;65.35;100686.16;4990855;28;1344;-61
2021/03/14 02:25:34;;;;;;;;;;;;;;;16.93;65.78;100690.53;4980071;28;1597;-61
2021/03/14 02:28:00;;;;;;;;;;;;;;;16.89;65.68;100686.38;4985435;28;1519;-61
2021/03/14 02:30:25;;;;;;;;;;;;;;;16.92;65.04;100690.66;4987753;28;1985;-61
2021/03/14 02:32:51;;;;;;;;;;;;;;;16.89;64.54;100694.41;4989490;28;1545;-61
2021/03/14 02:35:17;;;;;;;;;;;;;;;16.92;65.52;100694.16;4988910;28;1588;-61
2021/03/14 02:37:44;;;;;;;;;;;;;;;16.92;65.70;100702.19;4985642;28;1423;-61
2021/03/14 02:40:10;;;;;;;;;;;;;;;16.88;65.64;100704.25;4989943;28;1587;-61
2021/03/14 02:42:36;;;;;;;;;;;;;;;16.89;64.51;100702.41;4973011;28;1629;-61
2021/03/14 02:45:04;;;;;;;;;;;;;;;16.88;64.71;100706.91;4984681;28;1612;-61
2021/03/14 02:47:29;;;;;;;;;;;;;;;16.88;65.66;100701.56;4987416;28;1557;-61
2021/03/14 02:49:55;;;;;;;;;;;;;;;16.87;65.56;100699.03;4990374;28;1440;-61
2021/03/14 02:52:21;;;;;;;;;;;;;;;16.84;64.54;100705.47;4978471;28;1883;-61
2021/03/14 02:54:48;;;;;;;;;;;;;;;16.86;64.77;100689.31;4989263;28;1308;-61
2021/03/14 02:57:14;;;;;;;;;;;;;;;16.87;64.36;100696.34;4978783;28;1661;-61
2021/03/14 02:59:39;;;;;;;;;;;;;;;16.85;65.30;100695.63;4985814;28;1388;-61
2021/03/14 03:02:05;;;;;;;;;;;;;;;16.84;64.84;100684.09;5036484;22;2129;-43
2021/03/14 03:04:30;;;;;;;;;;;;;;;16.83;64.85;100686.88;5033525;28;1542;-44
2021/03/14 03:06:57;;;;;;;;;;;;;;;16.80;64.37;100671.94;5031896;28;1664;-43
2021/03/14 03:09:23;;;;;;;;;;;;;;;16.79;65.26;100685.41;5034358;28;1474;-43
2021/03/14 03:11:49;;;;;;;;;;;;;;;16.79;65.38;100674.72;5028274;22;3565;-60
2021/03/14 03:14:15;;;;;;;;;;;;;;;16.78;65.00;100683.72;5010182;28;1451;-60
2021/03/14 03:16:42;;;;;;;;;;;;;;;16.83;65.98;100663.72;5011423;28;1455;-60
2021/03/14 03:19:10;;;;;;;;;;;;;;;16.83;66.32;100670.88;5009081;28;1474;-60
2021/03/14 03:21:36;;;;;;;;;;;;;;;16.81;65.98;100670.09;5009615;28;1293;-60
2021/03/14 03:24:01;;;;;;;;;;;;;;;16.77;65.87;100672.19;5008232;28;1308;-60
2021/03/14 03:26:26;;;;;;;;;;;;;;;16.76;66.54;100666.97;5008359;28;1361;-61
2021/03/14 03:28:52;;;;;;;;;;;;;;;16.73;66.41;100669.88;5009921;28;1296;-60
2021/03/14 03:31:17;;;;;;;;;;;;;;;16.77;66.57;100668.66;5023055;28;1894;-60
2021/03/14 03:33:42;;;;;;;;;;;;;;;16.72;65.86;100663.69;5002121;28;1351;-60
2021/03/14 03:36:08;;;;;;;;;;;;;;;16.70;66.21;100661.13;4995780;28;1369;-60
2021/03/14 03:38:34;;;;;;;;;;;;;;;16.73;66.67;100669.88;5006953;28;785;-60
2021/03/14 03:41:00;;;;;;;;;;;;;;;16.72;66.21;100669.03;4996689;28;1494;-60
2021/03/14 03:43:32;;;;;;;;;;;;;;;16.69;65.63;100662.13;4989828;28;1675;-61
2021/03/14 03:45:59;;;;;;;;;;;;;;;16.72;65.35;100679.72;5004057;28;1540;-60
2021/03/14 03:48:44;;;;;;;;;;;;;;;16.69;64.92;100679.94;5003536;28;1236;-60
2021/03/14 03:51:13;;;;;;;;;;;;;;;16.68;65.33;100663.09;5005515;28;1894;-60
2021/03/14 03:53:40;;;;;;;;;;;;;;;16.68;65.73;100660.41;5007808;28;1677;-60
2021/03/14 03:56:06;;;;;;;;;;;;;;;16.68;65.16;100668.44;5012265;28;1388;-60
2021/03/14 03:58:32;;;;;;;;;;;;;;;16.66;65.21;100674.88;5008451;28;1316;-60
2021/03/14 04:00:57;;;;;;;;;;;;;;;16.69;66.33;100663.94;5008991;28;1342;-60
2021/03/14 04:03:23;;;;;;;;;;;;;;;16.74;65.15;100672.44;4984570;28;1528;-60
2021/03/14 04:05:58;;;;;;;;;;;;;;;16.74;64.98;100666.25;5011350;28;1506;-60
2021/03/14 04:08:25;;;;;;;;;;;;;;;16.73;64.87;100668.03;5008461;28;1621;-60
2021/03/14 04:10:51;;;;;;;;;;;;;;;16.69;65.37;100654.13;5012866;28;1973;-60
2021/03/14 04:13:17;;;;;;;;;;;;;;;16.66;65.80;100654.34;4998575;28;1333;-60
2021/03/14 04:15:42;;;;;;;;;;;;;;;16.66;65.02;100654.34;5009227;28;1554;-60
2021/03/14 04:18:08;;;;;;;;;;;;;;;16.65;66.24;100651.78;5007395;28;1741;-61
2021/03/14 04:20:37;;;;;;;;;;;;;;;16.62;65.50;100642.22;4994686;28;1487;-60
2021/03/14 04:23:04;;;;;;;;;;;;;;;16.62;66.07;100642.22;5008768;28;1417;-60
2021/03/14 04:25:30;;;;;;;;;;;;;;;16.60;66.60;100643.31;5010098;28;1471;-60
2021/03/14 04:27:57;;;;;;;;;;;;;;;16.59;65.24;100653.16;4994490;28;1590;-61
2021/03/14 04:30:23;;;;;;;;;;;;;;;16.59;66.73;100637.16;5006797;28;1714;-61
2021/03/14 04:32:49;;;;;;;;;;;;;;;16.58;65.65;100630.09;4991169;28;1366;-60
2021/03/14 04:35:15;;;;;;;;;;;;;;;16.58;65.51;100632.75;5005724;28;1358;-60
2021/03/14 04:37:41;;;;;;;;;;;;;;;16.59;66.48;100637.16;5001546;28;1293;-60
2021/03/14 04:40:07;;;;;;;;;;;;;;;16.57;65.78;100639.06;5001040;28;726;-60
2021/03/14 04:42:33;;;;;;;;;;;;;;;16.55;65.40;100637.50;5000631;28;1412;-60
2021/03/14 04:44:58;;;;;;;;;;;;;;;16.53;65.64;100632.25;5006329;28;1372;-61
2021/03/14 04:47:24;;;;;;;;;;;;;;;16.53;65.65;100632.25;5007171;28;1548;-60
2021/03/14 04:49:49;;;;;;;;;;;;;;;16.53;65.57;100624.25;5009000;28;1544;-60
2021/03/14 04:52:18;;;;;;;;;;;;;;;16.53;66.49;100632.25;5006997;28;1890;-60
2021/03/14 04:54:45;;;;;;;;;;;;;;;16.55;65.44;100634.81;4999000;28;1479;-60
2021/03/14 04:57:11;;;;;;;;;;;;;;;16.60;65.77;100637.97;5009587;28;1534;-61
2021/03/14 04:59:36;;;;;;;;;;;;;;;16.61;67.09;100637.88;5006966;28;1486;-60
2021/03/14 05:02:03;;;;;;;;;;;;;;;16.65;66.12;100652.66;4983895;28;1466;-60
2021/03/14 05:04:29;;;;;;;;;;;;;;;16.85;66.38;100627.06;5007464;28;1408;-61
2021/03/14 05:06:54;;;;;;;;;;;;;;;17.16;66.24;100634.38;5008055;28;1482;-59
2021/03/14 05:09:19;;;;;;;;;;;;;;;17.38;66.67;100628.94;5005860;28;1376;-62
2021/03/14 05:11:46;;;;;;;;;;;;;;;17.71;64.53;100632.44;4980687;28;1903;-58
2021/03/14 05:14:13;;;;;;;;;;;;;;;17.86;64.56;100625.78;4975945;28;1301;-59
2021/03/14 05:16:38;;;;;;;;;;;;;;;18.08;64.21;100626.59;5008236;28;1248;-60
2021/03/14 05:19:06;;;;;;;;;;;;;;;18.42;62.90;100626.34;5004315;28;1443;-62
2021/03/14 05:21:32;;;;;;;;;;;;;;;18.58;62.29;100618.66;5009595;28;1539;-65
2021/03/14 05:23:58;;;;;;;;;;;;;;;18.71;61.96;100617.56;4993585;28;1340;-61
2021/03/14 05:26:23;;;;;;;;;;;;;;;18.95;61.29;100610.03;4992878;28;1463;-62
2021/03/14 05:28:50;;;;;;;;;;;;;;;19.08;61.28;100609.78;5009293;28;1470;-62
2021/03/14 05:31:24;;;;;;;;;;;;;;;19.41;60.68;100608.47;5003984;28;1957;-61
2021/03/14 05:33:49;;;;;;;;;;;;;;;19.57;60.90;100617.78;5008957;28;1424;-62
2021/03/14 05:36:15;;;;;;;;;;;;;;;20.12;58.90;100614.47;5006154;28;1336;-70
2021/03/14 05:38:40;;;;;;;;;;;;;;;21.23;55.73;100612.59;5004548;28;1498;-61
2021/03/14 05:41:05;;;;;;;;;;;;;;;21.61;55.82;100597.97;5003075;28;1472;-60
2021/03/14 05:43:31;;;;;;;;;;;;;;;21.34;56.16;100612.34;5006821;28;1367;-66
2021/03/14 05:45:56;;;;;;;;;;;;;;;20.96;56.81;100617.03;5007613;28;1192;-61
2021/03/14 05:48:22;;;;;;;;;;;;;;;20.64;58.55;100602.22;4991828;28;1735;-65
2021/03/14 05:50:47;;;;;;;;;;;;;;;20.41;59.54;100604.47;5009801;28;1941;-62
2021/03/14 05:53:14;;;;;;;;;;;;;;;20.29;59.66;100607.47;5012393;28;1490;-65
2021/03/14 05:55:40;;;;;;;;;;;;;;;20.25;60.03;100610.47;4987820;28;1479;-64
2021/03/14 05:58:05;;;;;;;;;;;;;;;20.26;59.46;100596.03;4995081;28;1648;-62
2021/03/14 06:00:31;;;;;;;;;;;;;;;20.09;60.14;100604.84;5007474;28;1437;-62
2021/03/14 06:03:00;;;;;;;;;;;;;;;19.96;60.65;100605.19;4995400;28;1566;-61
2021/03/14 06:05:26;;;;;;;;;;;;;;;19.94;60.72;100606.34;4996454;28;1511;-57
2021/03/14 06:07:52;;;;;;;;;;;;;;;19.93;60.35;100604.63;5010847;28;1431;-61
2021/03/14 06:10:17;;;;;;;;;;;;;;;19.57;60.68;100604.38;4997961;28;1563;-62
2021/03/14 06:12:44;;;;;;;;;;;;;;;19.42;61.38;100599.47;4997051;28;1914;-62
2021/03/14 06:15:09;;;;;;;;;;;;;;;19.33;61.68;100608.34;4993175;28;1425;-59
2021/03/14 06:17:35;;;;;;;;;;;;;;;19.33;61.82;100589.59;5005891;28;1482;-61
2021/03/14 06:20:00;;;;;;;;;;;;;;;19.28;61.75;100603.44;5008125;28;1391;-66
2021/03/14 06:22:26;;;;;;;;;;;;;;;19.24;59.41;100599.34;5010560;28;1586;-59
2021/03/14 06:24:52;;;;;;;;;;;;;;;19.26;60.36;100596.53;5012298;28;1411;-59
2021/03/14 06:27:37;;;;;;;;;;;;;;;19.17;61.72;100589.31;5004803;28;1451;-60
2021/03/14 06:30:07;;;;;;;;;;;;;;;19.20;61.70;100592.56;5005886;28;1365;-63
2021/03/14 06:32:33;;;;;;;;;;;;;;;19.24;61.80;100599.34;5005017;28;1890;-68
2021/03/14 06:35:09;;;;;;;;;;;;;;;19.19;62.20;100604.25;5005242;28;1362;-66
2021/03/14 06:37:34;;;;;;;;;;;;;;;19.14;62.33;100592.25;5006002;28;1388;-63
2021/03/14 06:40:06;;;;;;;;;;;;;;;19.10;62.50;100591.72;4992826;28;1380;-68
2021/03/14 06:42:32;;;;;;;;;;;;;;;19.01;62.43;100571.09;5002413;28;1409;-63
2021/03/14 06:45:01;;;;;;;;;;;;;;;19.20;62.51;100597.06;5002823;28;1558;-66
2021/03/14 06:47:35;;;;;;;;;;;;;;;19.18;62.27;100601.72;5003454;28;1308;-61
2021/03/14 06:50:00;;;;;;;;;;;;;;;19.12;62.32;100600.47;5009758;28;1385;-66
2021/03/14 06:52:26;;;;;;;;;;;;;;;19.21;62.31;100596.09;4990216;28;1886;-66
2021/03/14 06:54:51;;;;;;;;;;;;;;;19.21;63.19;100599.59;5007434;28;1192;-59
2021/03/14 06:57:18;;;;;;;;;;;;;;;19.21;63.07;100596.91;5001770;28;1218;-59
2021/03/14 06:59:45;;;;;;;;;;;;;;;19.32;63.03;100604.00;5006615;28;1187;-62
2021/03/14 07:02:14;;;;;;;;;;;;;;;19.43;63.04;100617.22;5009891;28;1597;-57
2021/03/14 07:04:50;;;;;;;;;;;;;;;19.61;63.19;100605.78;5003521;28;1415;-60
2021/03/14 07:07:29;;;;;;;;;;;;;;;19.46;63.35;100565.16;5008884;28;1486;-58
2021/03/14 07:09:57;;;;;;;;;;;;;;;19.83;63.27;100600.13;5009178;28;1376;-62
2021/03/14 07:12:30;;;;;;;;;;;;;;;19.92;63.37;100600.28;5006629;28;1911;-58
2021/03/14 07:14:56;;;;;;;;;;;;;;;19.85;63.77;100603.50;5012624;28;1416;-61
2021/03/14 07:17:28;;;;;;;;;;;;;;;19.60;63.62;100609.47;5009639;28;1460;-60
2021/03/14 07:19:58;;;;;;;;;;;;;;;19.53;63.68;100598.44;5011284;28;1594;-59
2021/03/14 07:22:24;;;;;;;;;;;;;;;19.69;62.97;100608.59;5005332;28;1473;-71
2021/03/14 07:24:49;;;;;;;;;;;;;;;19.73;63.37;100601.97;5011720;28;1394;-59
2021/03/14 07:27:22;;;;;;;;;;;;;;;19.76;63.32;100609.75;5009272;28;1635;-60
2021/03/14 07:29:48;;;;;;;;;;;;;;;19.75;62.89;100591.13;5008365;28;1572;-65
2021/03/14 07:32:14;;;;;;;;;;;;;;;19.69;62.84;100600.56;5003194;28;1988;-64
2021/03/14 07:34:40;;;;;;;;;;;;;;;19.61;63.64;100581.66;5009357;28;1438;-66
2021/03/14 07:37:05;;;;;;;;;;;;;;;19.66;63.54;100598.16;5010784;28;1534;-66
2021/03/14 07:39:31;;;;;;;;;;;;;;;19.68;63.78;100586.28;5014203;28;1468;-62
2021/03/14 07:41:57;;;;;;;;;;;;;;;19.75;63.23;100578.53;5008146;28;1673;-61
2021/03/14 07:44:23;;;;;;;;;;;;;;;19.77;63.34;100586.44;5008696;28;1456;-62
2021/03/14 07:46:49;;;;;;;;;;;;;;;19.79;63.42;100579.94;5007878;28;1670;-67
2021/03/14 07:49:15;;;;;;;;;;;;;;;19.77;64.19;100564.97;4990676;28;1584;-58
2021/03/14 07:51:51;;;;;;;;;;;;;;;19.80;64.00;100573.59;5013470;28;1882;-65
2021/03/14 07:54:19;;;;;;;;;;;;;;;19.79;64.30;100574.56;4991856;28;1545;-60
2021/03/14 07:56:46;;;;;;;;;;;;;;;19.78;64.13;100556.78;4991648;28;1611;-60
2021/03/14 07:59:11;;;;;;;;;;;;;;;19.80;64.34;100554.81;5007851;28;1547;-65
2021/03/14 08:01:40;;;;;;;;;;;;;;;19.77;64.46;100546.19;5008261;28;1496;-64
2021/03/14 08:04:24;;;;;;;;;;;;;;;19.75;64.05;100551.72;5008264;28;1382;-76
2021/03/14 08:06:51;;;;;;;;;;;;;;;19.67;64.31;100555.06;5008485;28;1694;-67
2021/03/14 08:09:35;;;;;;;;;;;;;;;19.64;65.73;100535.78;5009454;28;1679;-70
2021/03/14 08:12:17;;;;;;;;;;;;;;;19.61;64.91;100546.78;5004185;28;1902;-63
2021/03/14 08:14:43;;;;;;;;;;;;;;;19.56;65.54;100549.06;5010206;28;1393;-65
2021/03/14 08:17:14;;;;;;;;;;;;;;;19.55;65.10;100544.69;5010696;28;1488;-65
2021/03/14 08:19:41;;;;;;;;;;;;;;;19.47;65.60;100548.91;5006626;28;1464;-67
2021/03/14 08:22:06;;;;;;;;;;;;;;;19.46;65.34;100533.81;5006733;28;1440;-64
2021/03/14 08:24:32;;;;;;;;;;;;;;;19.45;65.89;100537.47;5009419;28;1315;-69
2021/03/14 08:27:07;;;;;;;;;;;;;;;19.40;66.02;100530.88;5010604;28;1397;-69
2021/03/14 08:29:42;;;;;;;;;;;;;;;19.39;65.53;100537.22;5009522;28;1474;-68
2021/03/14 08:32:27;;;;;;;;;;;;;;;19.38;65.29;100530.19;5009205;28;1981;-71
2021/03/14 08:34:53;;;;;;;;;;;;;;;19.38;65.57;100530.19;5009654;28;1679;-57
2021/03/14 08:37:22;;;;;;;;;;;;;;;19.35;66.04;100533.97;5009612;28;1421;-73
2021/03/14 08:39:48;;;;;;;;;;;;;;;19.34;65.72;100528.75;5012403;28;1316;-71
2021/03/14 08:42:13;;;;;;;;;;;;;;;19.35;66.16;100519.72;4991126;28;1498;-59
2021/03/14 08:44:40;;;;;;;;;;;;;;;19.38;66.07;100509.56;5006151;28;1342;-58
2021/03/14 08:47:14;;;;;;;;;;;;;;;19.37;65.88;100502.50;5009880;28;1622;-64
2021/03/14 08:49:49;;;;;;;;;;;;;;;19.40;65.92;100512.13;5005204;28;1392;-59
2021/03/14 08:52:15;;;;;;;;;;;;;;;19.35;65.70;100499.13;5002414;28;1874;-66
2021/03/14 08:54:42;;;;;;;;;;;;;;;19.31;65.32;100503.09;5009067;28;1427;-64
2021/03/14 08:57:09;;;;;;;;;;;;;;;19.24;66.39;100504.66;5005876;28;1330;-64
2021/03/14 08:59:35;;;;;;;;;;;;;;;19.15;66.59;100492.09;5010439;28;1477;-63
2021/03/14 09:02:02;;;;;;;;;;;;;;;19.19;66.01;100499.72;5007525;28;1499;-58
2021/03/14 09:04:30;;;;;;;;;;;;;;;19.20;65.73;100489.81;5006887;28;1515;-58
2021/03/14 09:07:08;;;;;;;;;;;;;;;19.20;66.47;100497.88;4315177;28;10000978;-58
2021/03/14 09:09:34;;;;;;;;;;;;;;;19.13;66.36;100488.72;4996068;28;1702;-58
2021/03/14 09:12:04;;;;;;;;;;;;;;;19.11;66.53;100490.72;4998676;28;2008;-58
2021/03/14 09:14:39;;;;;;;;;;;;;;;19.13;66.81;100491.41;5003951;28;1345;-58
2021/03/14 09:17:06;;;;;;;;;;;;;;;19.18;66.23;100487.31;5000466;28;1357;-58
2021/03/14 09:19:43;;;;;;;;;;;;;;;18.90;66.74;100435.44;4994576;28;1460;-66
2021/03/14 09:22:19;;;;;;;;;;;;;;;19.12;65.78;100469.13;5001806;28;1385;-58
2021/03/14 09:24:44;;;;;;;;;;;;;;;19.10;66.37;100465.75;5008256;28;1484;-58
2021/03/14 09:27:11;;;;;;;;;;;;;;;19.12;66.78;100470.94;5001651;28;1410;-64
2021/03/14 09:29:36;;;;;;;;;;;;;;;19.13;66.06;100457.41;5003929;28;1468;-66
2021/03/14 09:32:13;;;;;;;;;;;;;;;19.12;66.15;100449.50;5001500;28;1955;-66
2021/03/14 09:34:38;;;;;;;;;;;;;;;19.09;66.28;100442.59;5004653;28;1603;-65
2021/03/14 09:37:04;;;;;;;;;;;;;;;19.11;66.19;100459.38;5004804;28;1461;-65
2021/03/14 09:39:29;;;;;;;;;;;;;;;19.09;66.76;100442.59;5002874;28;1386;-65
2021/03/14 09:41:54;;;;;;;;;;;;;;;19.08;66.87;100433.72;5006203;28;1510;-59
2021/03/14 09:44:20;;;;;;;;;;;;;;;19.07;66.86;100437.38;5003629;28;1540;-58
2021/03/14 09:46:59;;;;;;;;;;;;;;;19.07;66.83;100441.91;4999031;28;1496;-58
2021/03/14 09:49:24;;;;;;;;;;;;;;;19.04;66.75;100432.31;5001807;28;1456;-58
2021/03/14 09:51:51;;;;;;;;;;;;;;;19.02;66.66;100423.59;5002787;28;1984;-65
2021/03/14 09:54:17;;;;;;;;;;;;;;;19.04;66.72;100428.81;5000711;28;1476;-65
2021/03/14 09:56:48;;;;;;;;;;;;;;;19.03;66.74;100425.25;5002532;28;1371;-58
2021/03/14 09:59:18;;;;;;;;;;;;;;;19.02;66.74;100423.59;5004432;28;1441;-58
2021/03/14 10:01:46;;;;;;;;;;;;;;;19.02;66.82;100428.94;4998467;28;1483;-65
2021/03/14 10:04:12;;;;;;;;;;;;;;;19.03;66.32;100419.06;5000663;28;1501;-66
2021/03/14 10:06:38;;;;;;;;;;;;;;;19.02;66.75;100420.91;5002838;28;2175;-65
2021/03/14 10:09:03;;;;;;;;;;;;;;;19.03;66.75;100421.75;4986575;28;1178;-58
2021/03/14 10:11:28;;;;;;;;;;;;;;;19.02;66.87;100410.19;5003853;28;1919;-65
2021/03/14 10:13:55;;;;;;;;;;;;;;;19.00;66.62;100414.84;5000420;28;1540;-58
2021/03/14 10:16:21;;;;;;;;;;;;;;;18.99;66.75;100412.31;4999950;28;1589;-58
2021/03/14 10:18:47;;;;;;;;;;;;;;;18.99;66.84;100415.81;5003069;28;1553;-58
2021/03/14 10:21:28;;;;;;;;;;;;;;;19.01;66.81;100416.53;5004537;28;1309;-58
2021/03/14 10:24:12;;;;;;;;;;;;;;;19.05;66.31;100401.00;5004984;28;1625;-58
2021/03/14 10:26:49;;;;;;;;;;;;;;;19.00;66.68;100393.41;5002519;28;1580;-65
2021/03/14 10:29:14;;;;;;;;;;;;;;;19.07;66.33;100397.19;5002091;28;1515;-58
2021/03/14 10:31:39;;;;;;;;;;;;;;;19.13;66.30;100381.53;5002339;28;1898;-58
2021/03/14 10:34:05;;;;;;;;;;;;;;;19.17;65.80;100396.31;5001069;28;1446;-57
2021/03/14 10:36:34;;;;;;;;;;;;;;;19.19;66.15;100375.56;5005616;28;1392;-57
2021/03/14 10:39:00;;;;;;;;;;;;;;;19.23;65.49;100379.66;5003458;28;1437;-57
2021/03/14 10:41:25;;;;;;;;;;;;;;;19.24;65.16;100368.78;5000782;28;1453;-57
2021/03/14 10:43:55;;;;;;;;;;;;;;;19.21;66.16;100365.53;5004121;28;1582;-57
2021/03/14 10:46:39;;;;;;;;;;;;;;;19.28;64.86;100358.63;5004572;28;1530;-67
2021/03/14 10:49:11;;;;;;;;;;;;;;;19.44;65.50;100342.72;5007923;28;1365;-62
2021/03/14 10:51:38;;;;;;;;;;;;;;;19.48;65.61;100354.00;5012245;28;1950;-62
2021/03/14 10:54:04;;;;;;;;;;;;;;;19.45;66.72;100347.09;4994604;28;1562;-63
2021/03/14 10:56:40;;;;;;;;;;;;;;;19.36;67.29;100329.22;4987853;28;1512;-62
2021/03/14 10:59:06;;;;;;;;;;;;;;;19.41;66.17;100342.19;5011016;28;1361;-63
2021/03/14 11:01:42;;;;;;;;;;;;;;;19.35;66.74;100342.78;5012625;28;1550;-63
2021/03/14 11:04:08;;;;;;;;;;;;;;;19.16;54.29;100328.47;5007354;28;1471;-64
2021/03/14 11:06:34;;;;;;;;;;;;;;;19.09;63.93;100324.69;5011241;28;1329;-63
2021/03/14 11:09:02;;;;;;;;;;;;;;;19.12;62.96;100326.22;5004606;28;1276;-62
2021/03/14 11:11:43;;;;;;;;;;;;;;;19.08;65.52;100323.84;4994071;28;1976;-63
2021/03/14 11:14:27;;;;;;;;;;;;;;;19.14;65.00;100313.50;5010334;28;1173;-64
2021/03/14 11:17:24;;;;;;;;;;;;;;;19.16;64.59;100325.78;5010578;28;1338;-64
2021/03/14 11:19:50;;;;;;;;;;;;;;;19.16;64.52;100314.19;4997568;28;1611;-63
2021/03/14 11:22:17;;;;;;;;;;;;;;;19.08;63.16;100304.25;5010480;28;1496;-63
2021/03/14 11:24:43;;;;;;;;;;;;;;;18.98;65.07;100298.91;4993612;28;1407;-62
2021/03/14 11:27:09;;;;;;;;;;;;;;;18.80;64.27;100298.84;4989843;28;1675;-62
2021/03/14 11:29:34;;;;;;;;;;;;;;;18.72;63.26;100298.69;5003488;28;1722;-62
2021/03/14 11:32:00;;;;;;;;;;;;;;;18.64;62.34;100295.88;5007151;28;1949;-63
2021/03/14 11:34:26;;;;;;;;;;;;;;;18.63;61.79;100299.56;5003329;28;1586;-62
2021/03/14 11:36:51;;;;;;;;;;;;;;;18.59;61.46;100292.78;5004557;28;1336;-63
2021/03/14 11:39:17;;;;;;;;;;;;;;;18.57;60.63;100303.66;5004385;28;782;-63
2021/03/14 11:41:43;;;;;;;;;;;;;;;18.59;59.76;100295.47;4998548;28;1730;-62
2021/03/14 11:44:08;;;;;;;;;;;;;;;18.54;60.13;100292.38;5001885;28;1399;-63
2021/03/14 11:46:34;;;;;;;;;;;;;;;18.57;60.60;100300.97;5004719;28;1403;-62
2021/03/14 11:48:59;;;;;;;;;;;;;;;18.63;58.84;100283.47;4986610;28;1406;-62
2021/03/14 11:51:25;;;;;;;;;;;;;;;18.67;57.08;100291.06;4982358;28;1898;-62
2021/03/14 11:53:50;;;;;;;;;;;;;;;18.60;58.66;100279.28;5005264;28;1539;-62
2021/03/14 11:56:16;;;;;;;;;;;;;;;18.53;60.59;100277.31;4994939;28;1364;-63
2021/03/14 11:58:42;;;;;;;;;;;;;;;18.51;60.58;100276.63;5003996;28;1403;-63
2021/03/14 12:01:07;;;;;;;;;;;;;;;18.53;60.37;100278.16;5003213;28;1411;-63
2021/03/14 12:03:32;;;;;;;;;;;;;;;18.48;60.21;100264.34;5002162;28;1291;-63
2021/03/14 12:05:58;;;;;;;;;;;;;;;18.51;59.87;100250.66;5002346;28;1675;-63
2021/03/14 12:08:23;;;;;;;;;;;;;;;18.47;60.00;100262.66;5007197;28;1538;-62
2021/03/14 12:10:49;;;;;;;;;;;;;;;18.49;59.20;100249.97;4996080;28;1982;-62
2021/03/14 12:13:14;;;;;;;;;;;;;;;18.45;59.53;100254.75;5005974;28;1547;-62
2021/03/14 12:15:40;;;;;;;;;;;;;;;18.46;58.64;100239.53;5006325;28;1782;-63
2021/03/14 12:18:05;;;;;;;;;;;;;;;18.39;59.05;100251.84;5004096;28;1687;-63
2021/03/14 12:20:30;;;;;;;;;;;;;;;18.36;60.10;100228.84;5008512;28;1610;-63
2021/03/14 12:22:56;;;;;;;;;;;;;;;18.38;59.34;100236.75;5003532;28;1349;-63
2021/03/14 12:25:21;;;;;;;;;;;;;;;18.42;59.12;100240.81;5009389;28;871;-63
2021/03/14 12:27:47;;;;;;;;;;;;;;;18.37;57.85;100229.72;5008245;28;1501;-63
2021/03/14 12:30:12;;;;;;;;;;;;;;;18.32;57.90;100230.13;5003935;28;1594;-63
2021/03/14 12:32:38;;;;;;;;;;;;;;;18.33;56.80;100225.63;5002928;28;1886;-63
2021/03/14 12:35:04;;;;;;;;;;;;;;;18.27;57.98;100230.56;5003484;28;1352;-63
2021/03/14 12:37:29;;;;;;;;;;;;;;;18.24;56.28;100225.53;5004312;28;1344;-63
2021/03/14 12:39:54;;;;;;;;;;;;;;;18.20;57.36;100226.75;5003740;28;771;-62
2021/03/14 12:42:20;;;;;;;;;;;;;;;18.23;56.91;100233.69;5000878;28;1503;-64
2021/03/14 12:44:45;;;;;;;;;;;;;;;18.25;57.01;100207.63;5003873;28;1556;-63
2021/03/14 12:47:11;;;;;;;;;;;;;;;18.24;58.05;100209.47;5003167;28;1396;-63
2021/03/14 12:49:36;;;;;;;;;;;;;;;18.23;56.47;100214.94;5001377;28;1451;-62